Time;durP1;ratioP1;P1;durP2;ratioP2;P2;SDS_P1;SDS_P2;PMS_P1;PMS_P2;Temp;Humidity;BMP_temperature;BMP_pressure;BME280_temperature;BME280_humidity;BME280_pressure;Samples;Min_cycle;Max_cycle;Signal;HPM_P1;HPM_P2
2022/10/23 00:00:21;;;;;;;;;;;11.70;99.90;;;;;;5084763;28;19916;-74
2022/10/23 00:02:51;;;;;;;;;;;11.70;99.90;;;;;;5084623;28;20218;-74
2022/10/23 00:05:17;;;;;;;;;;;11.60;99.90;;;;;;5083179;28;19922;-74
2022/10/23 00:07:43;;;;;;;;;;;11.60;99.90;;;;;;5082950;28;19913;-74
2022/10/23 00:10:08;;;;;;;;;;;11.50;99.90;;;;;;5084527;28;19909;-74
2022/10/23 00:12:34;;;;;;;;;;;11.40;99.90;;;;;;5083463;28;19946;-74
2022/10/23 00:15:00;;;;;;;;;;;11.30;99.90;;;;;;5084448;28;19909;-74
2022/10/23 00:17:26;;;;;;;;;;;11.30;99.90;;;;;;5082214;28;19908;-74
2022/10/23 00:19:51;;;;;;;;;;;11.20;99.90;;;;;;5084296;28;19924;-74
2022/10/23 00:22:17;;;;;;;;;;;11.20;99.90;;;;;;5083087;28;19908;-74
2022/10/23 00:24:43;;;;;;;;;;;11.20;99.90;;;;;;5083055;28;19908;-74
2022/10/23 00:27:08;;;;;;;;;;;11.30;99.90;;;;;;5082540;28;19920;-74
2022/10/23 00:29:34;;;;;;;;;;;11.30;99.90;;;;;;5083034;28;19908;-74
2022/10/23 00:31:59;;;;;;;;;;;11.30;99.90;;;;;;5084050;28;19936;-74
2022/10/23 00:34:25;;;;;;;;;;;11.30;99.90;;;;;;5083734;28;19909;-73
2022/10/23 00:36:51;;;;;;;;;;;11.30;99.90;;;;;;5083499;28;19908;-74
2022/10/23 00:39:16;;;;;;;;;;;11.40;99.90;;;;;;5083989;28;20211;-73
2022/10/23 00:41:42;;;;;;;;;;;11.40;99.90;;;;;;5083946;28;20192;-73
2022/10/23 00:44:28;;;;;;;;;;;11.30;99.90;;;;;;5083797;28;19908;-73
2022/10/23 00:46:54;;;;;;;;;;;11.30;99.90;;;;;;5072140;28;19908;-73
2022/10/23 00:49:21;;;;;;;;;;;11.20;99.90;;;;;;5083250;28;20147;-73
2022/10/23 00:51:58;;;;;;;;;;;11.20;99.90;;;;;;5082526;28;19916;-73
2022/10/23 00:54:24;;;;;;;;;;;11.30;99.90;;;;;;5082465;28;19971;-73
2022/10/23 00:56:51;;;;;;;;;;;11.30;99.90;;;;;;5082083;28;19913;-73
2022/10/23 00:59:17;;;;;;;;;;;11.30;99.90;;;;;;5082234;28;20215;-74
2022/10/23 01:01:42;;;;;;;;;;;11.30;99.90;;;;;;5082238;28;19912;-74
2022/10/23 01:04:08;;;;;;;;;;;11.20;99.90;;;;;;5065596;28;20200;-74
2022/10/23 01:06:36;;;;;;;;;;;11.20;99.90;;;;;;5081970;28;19915;-74
2022/10/23 01:09:08;;;;;;;;;;;11.20;99.90;;;;;;5082123;28;19991;-74
2022/10/23 01:11:44;;;;;;;;;;;11.30;99.90;;;;;;5082038;28;19916;-73
2022/10/23 01:14:22;;;;;;;;;;;11.30;99.90;;;;;;5082197;28;19946;-74
2022/10/23 01:16:55;;;;;;;;;;;11.30;99.90;;;;;;5081969;28;19915;-74
2022/10/23 01:19:24;;;;;;;;;;;11.30;99.90;;;;;;5081792;28;20032;-74
2022/10/23 01:22:15;;;;;;;;;;;11.30;99.90;;;;;;5083112;28;19908;-74
2022/10/23 01:24:44;;;;;;;;;;;11.40;99.90;;;;;;5082088;28;19939;-74
2022/10/23 01:27:21;;;;;;;;;;;11.30;99.90;;;;;;5081236;28;19970;-74
2022/10/23 01:30:01;;;;;;;;;;;11.30;99.90;;;;;;5082009;28;20331;-74
2022/10/23 01:32:34;;;;;;;;;;;11.30;99.90;;;;;;5081991;28;20288;-75
2022/10/23 01:35:03;;;;;;;;;;;11.20;99.90;;;;;;5081518;28;19915;-75
2022/10/23 01:37:42;;;;;;;;;;;11.20;99.90;;;;;;5101015;22;20216;-70
2022/10/23 01:40:35;;;;;;;;;;;11.10;99.90;;;;;;5069208;28;19908;-70
2022/10/23 01:43:04;;;;;;;;;;;11.10;99.90;;;;;;5050918;28;19916;-70
2022/10/23 01:45:30;;;;;;;;;;;11.10;99.90;;;;;;5068603;28;20020;-70
2022/10/23 01:47:55;;;;;;;;;;;11.10;99.90;;;;;;5102483;28;19912;-70
2022/10/23 01:50:21;;;;;;;;;;;11.10;99.90;;;;;;5085093;28;19916;-70
2022/10/23 01:52:46;;;;;;;;;;;11.10;99.90;;;;;;5067969;28;19916;-70
2022/10/23 01:55:12;;;;;;;;;;;11.00;99.90;;;;;;5102811;28;19908;-70
2022/10/23 01:57:38;;;;;;;;;;;11.00;99.90;;;;;;5067785;28;19914;-70
2022/10/23 02:00:13;;;;;;;;;;;11.00;99.90;;;;;;5084863;28;19958;-70
2022/10/23 02:02:39;;;;;;;;;;;11.00;99.90;;;;;;5084910;28;19908;-70
2022/10/23 02:05:24;;;;;;;;;;;10.90;99.90;;;;;;5068121;28;19908;-70
2022/10/23 02:07:50;;;;;;;;;;;10.90;99.90;;;;;;5059971;28;19913;-70
2022/10/23 02:10:15;;;;;;;;;;;10.90;99.90;;;;;;5047993;28;19955;-71
2022/10/23 02:13:04;;;;;;;;;;;10.90;99.90;;;;;;5048061;28;19927;-70
2022/10/23 02:15:39;;;;;;;;;;;10.90;99.90;;;;;;5082595;28;19954;-70
2022/10/23 02:18:30;;;;;;;;;;;10.90;99.90;;;;;;5048012;28;19947;-70
2022/10/23 02:20:59;;;;;;;;;;;10.90;99.90;;;;;;5082416;28;19914;-70
2022/10/23 02:23:38;;;;;;;;;;;10.90;99.90;;;;;;5064254;28;19923;-70
2022/10/23 02:26:07;;;;;;;;;;;10.80;99.90;;;;;;5048775;28;19916;-69
2022/10/23 02:28:42;;;;;;;;;;;10.80;99.90;;;;;;5047918;28;19913;-70
2022/10/23 02:31:08;;;;;;;;;;;10.80;99.90;;;;;;5064831;28;20176;-70
2022/10/23 02:33:34;;;;;;;;;;;10.90;99.90;;;;;;5064581;28;19983;-70
2022/10/23 02:36:00;;;;;;;;;;;10.90;99.90;;;;;;5082115;28;20146;-70
2022/10/23 02:38:39;;;;;;;;;;;10.90;99.90;;;;;;5063822;28;19978;-70
2022/10/23 02:41:24;;;;;;;;;;;10.90;99.90;;;;;;5068445;28;19972;-70
2022/10/23 02:43:53;;;;;;;;;;;10.80;99.90;;;;;;5086003;28;20138;-71
2022/10/23 02:46:47;;;;;;;;;;;10.70;99.90;;;;;;5067957;28;19908;-70
2022/10/23 02:49:44;;;;;;;;;;;10.70;99.90;;;;;;5049396;28;19919;-69
2022/10/23 02:52:13;;;;;;;;;;;10.60;99.90;;;;;;5085827;28;19917;-70
2022/10/23 02:54:49;;;;;;;;;;;10.60;99.90;;;;;;5051730;28;19912;-70
2022/10/23 02:57:21;;;;;;;;;;;10.60;99.90;;;;;;5035145;28;19950;-70
2022/10/23 02:59:55;;;;;;;;;;;10.60;99.90;;;;;;5068021;28;19916;-70
2022/10/23 03:02:23;;;;;;;;;;;10.50;99.90;;;;;;5067974;28;19975;-70
2022/10/23 03:04:49;;;;;;;;;;;10.50;99.90;;;;;;5051497;28;20107;-70
2022/10/23 03:07:14;;;;;;;;;;;10.50;99.90;;;;;;5050516;28;20974;-70
2022/10/23 03:09:40;;;;;;;;;;;10.40;99.90;;;;;;5034348;28;19915;-70
2022/10/23 03:12:06;;;;;;;;;;;10.40;99.90;;;;;;5085477;28;19916;-69
2022/10/23 03:14:31;;;;;;;;;;;10.40;99.90;;;;;;5085388;28;19970;-70
2022/10/23 03:16:57;;;;;;;;;;;10.40;99.90;;;;;;5084960;28;19915;-70
2022/10/23 03:19:23;;;;;;;;;;;10.30;99.90;;;;;;5085301;28;20230;-70
2022/10/23 03:21:48;;;;;;;;;;;10.20;99.90;;;;;;5085313;28;20096;-70
2022/10/23 03:24:14;;;;;;;;;;;10.10;99.90;;;;;;5067132;28;19908;-70
2022/10/23 03:26:40;;;;;;;;;;;10.10;99.90;;;;;;5084920;28;19908;-71
2022/10/23 03:29:05;;;;;;;;;;;10.00;99.90;;;;;;5085134;28;19912;-70
2022/10/23 03:31:31;;;;;;;;;;;10.10;99.90;;;;;;5085150;28;19916;-70
2022/10/23 03:33:57;;;;;;;;;;;10.10;99.90;;;;;;5085030;28;20203;-69
2022/10/23 03:36:23;;;;;;;;;;;10.10;99.90;;;;;;5084827;28;19909;-70
2022/10/23 03:38:49;;;;;;;;;;;10.10;99.90;;;;;;5084521;28;19947;-69
2022/10/23 03:41:14;;;;;;;;;;;10.10;99.90;;;;;;5084955;28;19976;-70
2022/10/23 03:43:40;;;;;;;;;;;10.10;99.90;;;;;;5084832;28;20160;-70
2022/10/23 03:46:08;;;;;;;;;;;10.00;99.90;;;;;;5084644;28;20111;-70
2022/10/23 03:48:37;;;;;;;;;;;10.00;99.90;;;;;;5084571;28;19912;-69
2022/10/23 03:51:04;;;;;;;;;;;10.00;99.90;;;;;;5067413;28;19908;-70
2022/10/23 03:53:29;;;;;;;;;;;9.90;99.90;;;;;;5084494;28;19979;-69
2022/10/23 03:55:55;;;;;;;;;;;9.90;99.90;;;;;;5084741;28;19912;-70
2022/10/23 03:58:21;;;;;;;;;;;9.90;99.90;;;;;;5066661;28;19908;-70
2022/10/23 04:00:46;;;;;;;;;;;9.90;99.90;;;;;;5084535;28;19924;-70
2022/10/23 04:03:12;;;;;;;;;;;9.90;99.90;;;;;;5066690;28;19931;-70
2022/10/23 04:05:38;;;;;;;;;;;9.90;99.90;;;;;;5066735;28;19908;-70
2022/10/23 04:08:03;;;;;;;;;;;9.80;99.90;;;;;;5065897;28;19912;-70
2022/10/23 04:10:29;;;;;;;;;;;9.80;99.90;;;;;;5066700;28;19908;-70
2022/10/23 04:12:54;;;;;;;;;;;9.90;99.90;;;;;;5084391;28;19932;-69
2022/10/23 04:15:20;;;;;;;;;;;9.90;99.90;;;;;;5084308;28;19909;-70
2022/10/23 04:17:46;;;;;;;;;;;10.00;99.90;;;;;;5084049;28;20065;-70
2022/10/23 04:20:11;;;;;;;;;;;10.00;99.90;;;;;;5083027;28;20170;-70
2022/10/23 04:22:37;;;;;;;;;;;10.00;99.90;;;;;;5066208;28;19912;-70
2022/10/23 04:25:03;;;;;;;;;;;10.00;99.90;;;;;;5084140;28;19915;-70
2022/10/23 04:27:29;;;;;;;;;;;10.00;99.90;;;;;;5078886;28;19916;-70
2022/10/23 04:29:54;;;;;;;;;;;10.00;99.90;;;;;;5073325;28;19917;-71
2022/10/23 04:32:20;;;;;;;;;;;10.00;99.90;;;;;;5058605;28;19928;-70
2022/10/23 04:34:46;;;;;;;;;;;10.00;99.90;;;;;;5072821;28;20161;-71
2022/10/23 04:37:11;;;;;;;;;;;10.00;99.90;;;;;;5057032;28;19925;-70
2022/10/23 04:39:37;;;;;;;;;;;10.00;99.90;;;;;;5075379;28;19976;-70
2022/10/23 04:42:02;;;;;;;;;;;10.00;99.90;;;;;;5072818;28;19912;-70
2022/10/23 04:44:28;;;;;;;;;;;10.00;99.90;;;;;;5069377;28;19975;-70
2022/10/23 04:46:54;;;;;;;;;;;10.00;99.90;;;;;;5070157;28;19920;-70
2022/10/23 04:49:19;;;;;;;;;;;10.00;99.90;;;;;;5079111;28;19927;-70
2022/10/23 04:51:45;;;;;;;;;;;10.00;99.90;;;;;;5077563;28;19908;-70
2022/10/23 04:54:11;;;;;;;;;;;10.00;99.90;;;;;;5078402;28;19970;-70
2022/10/23 04:56:36;;;;;;;;;;;10.00;99.90;;;;;;5070915;28;20007;-70
2022/10/23 04:59:02;;;;;;;;;;;10.10;99.90;;;;;;5068704;28;19919;-70
2022/10/23 05:01:28;;;;;;;;;;;10.10;99.90;;;;;;5063401;28;19920;-70
2022/10/23 05:03:55;;;;;;;;;;;10.10;99.90;;;;;;5082937;28;19944;-69
2022/10/23 05:06:21;;;;;;;;;;;10.10;99.90;;;;;;5082858;28;19912;-70
2022/10/23 05:08:46;;;;;;;;;;;10.10;99.90;;;;;;5082628;28;19924;-70
2022/10/23 05:11:12;;;;;;;;;;;10.10;99.90;;;;;;5083131;28;20196;-70
2022/10/23 05:13:38;;;;;;;;;;;10.10;99.90;;;;;;5082894;28;19915;-69
2022/10/23 05:16:03;;;;;;;;;;;10.10;99.90;;;;;;5082554;28;19924;-70
2022/10/23 05:18:39;;;;;;;;;;;10.00;99.90;;;;;;5083022;28;19908;-70
2022/10/23 05:21:06;;;;;;;;;;;10.00;99.90;;;;;;5058610;28;19919;-70
2022/10/23 05:23:32;;;;;;;;;;;10.00;99.90;;;;;;5082747;28;19916;-70
2022/10/23 05:25:57;;;;;;;;;;;9.90;99.90;;;;;;5050768;28;19958;-70
2022/10/23 05:28:23;;;;;;;;;;;9.90;99.90;;;;;;5045002;28;19917;-70
2022/10/23 05:30:48;;;;;;;;;;;9.90;99.90;;;;;;5065736;28;19912;-70
2022/10/23 05:33:14;;;;;;;;;;;9.90;99.90;;;;;;5045345;28;19916;-69
2022/10/23 05:35:40;;;;;;;;;;;9.90;99.90;;;;;;5078408;28;19912;-70
2022/10/23 05:38:06;;;;;;;;;;;9.80;99.90;;;;;;5059485;28;19912;-70
2022/10/23 05:40:31;;;;;;;;;;;9.80;99.90;;;;;;5064906;28;20157;-71
2022/10/23 05:42:57;;;;;;;;;;;9.70;99.90;;;;;;5082969;28;19908;-72
2022/10/23 05:45:23;;;;;;;;;;;9.70;99.90;;;;;;5082903;28;19926;-72
2022/10/23 05:47:48;;;;;;;;;;;9.70;99.90;;;;;;5082188;28;19916;-71
2022/10/23 05:50:14;;;;;;;;;;;9.70;99.90;;;;;;5080160;28;19928;-72
2022/10/23 05:52:40;;;;;;;;;;;9.70;99.90;;;;;;5074536;28;19909;-72
2022/10/23 05:55:06;;;;;;;;;;;9.50;99.90;;;;;;5077483;28;19920;-71
2022/10/23 05:57:32;;;;;;;;;;;9.50;99.90;;;;;;5077025;28;19912;-72
2022/10/23 05:59:58;;;;;;;;;;;9.50;99.90;;;;;;5062207;28;19908;-72
2022/10/23 06:02:23;;;;;;;;;;;9.50;99.90;;;;;;5082638;28;19909;-71
2022/10/23 06:04:49;;;;;;;;;;;9.50;99.90;;;;;;5082695;28;19950;-73
2022/10/23 06:07:15;;;;;;;;;;;9.50;99.90;;;;;;5082095;28;19925;-72
2022/10/23 06:09:41;;;;;;;;;;;9.60;99.90;;;;;;5063978;28;19979;-71
2022/10/23 06:12:06;;;;;;;;;;;9.60;99.90;;;;;;5082455;28;19942;-72
2022/10/23 06:14:32;;;;;;;;;;;9.70;99.90;;;;;;5083967;28;19916;-72
2022/10/23 06:16:57;;;;;;;;;;;9.80;99.90;;;;;;5086112;28;19920;-72
2022/10/23 06:19:23;;;;;;;;;;;9.80;99.90;;;;;;5086436;28;19912;-72
2022/10/23 06:21:49;;;;;;;;;;;9.90;99.90;;;;;;5086296;28;20145;-72
2022/10/23 06:24:14;;;;;;;;;;;9.90;99.90;;;;;;5085996;28;20111;-72
2022/10/23 06:26:40;;;;;;;;;;;10.00;99.90;;;;;;5085894;28;19932;-72
2022/10/23 06:29:06;;;;;;;;;;;10.00;99.90;;;;;;5085882;28;19916;-72
2022/10/23 06:31:31;;;;;;;;;;;10.10;99.90;;;;;;5087037;28;19920;-71
2022/10/23 06:33:57;;;;;;;;;;;10.10;99.90;;;;;;5086367;28;19963;-72
2022/10/23 06:36:23;;;;;;;;;;;10.20;99.90;;;;;;5068360;28;19915;-72
2022/10/23 06:38:50;;;;;;;;;;;10.30;99.90;;;;;;5085720;28;19912;-71
2022/10/23 06:41:18;;;;;;;;;;;10.30;99.90;;;;;;5086458;28;19958;-72
2022/10/23 06:43:45;;;;;;;;;;;10.40;99.90;;;;;;5068319;28;20123;-72
2022/10/23 06:46:11;;;;;;;;;;;10.50;99.90;;;;;;5068456;28;19915;-72
2022/10/23 06:48:37;;;;;;;;;;;10.50;99.90;;;;;;5085966;28;19992;-71
2022/10/23 06:51:07;;;;;;;;;;;10.60;99.90;;;;;;5086135;28;19944;-72
2022/10/23 06:53:32;;;;;;;;;;;10.70;99.90;;;;;;5051434;28;20245;-73
2022/10/23 06:55:59;;;;;;;;;;;10.80;99.90;;;;;;5068171;28;19964;-72
2022/10/23 06:58:25;;;;;;;;;;;10.80;99.90;;;;;;5051093;28;19916;-72
2022/10/23 07:00:50;;;;;;;;;;;10.90;99.90;;;;;;5085450;28;19921;-71
2022/10/23 07:03:16;;;;;;;;;;;10.90;99.90;;;;;;5064665;28;19948;-71
2022/10/23 07:05:43;;;;;;;;;;;11.00;99.90;;;;;;5085523;28;19931;-71
2022/10/23 07:08:09;;;;;;;;;;;11.00;99.90;;;;;;5066834;28;20123;-72
2022/10/23 07:10:35;;;;;;;;;;;11.10;99.90;;;;;;5085366;28;19915;-71
2022/10/23 07:13:02;;;;;;;;;;;11.10;99.90;;;;;;5085079;28;19912;-72
2022/10/23 07:15:27;;;;;;;;;;;11.20;99.90;;;;;;5085178;28;19916;-68
2022/10/23 07:17:53;;;;;;;;;;;11.20;99.90;;;;;;5084988;28;20203;-69
2022/10/23 07:20:19;;;;;;;;;;;11.30;99.90;;;;;;5081822;28;20222;-69
2022/10/23 07:22:50;;;;;;;;;;;11.30;99.90;;;;;;5077351;28;19912;-69
2022/10/23 07:25:16;;;;;;;;;;;11.30;99.90;;;;;;5079145;28;19931;-69
2022/10/23 07:27:42;;;;;;;;;;;11.30;99.90;;;;;;5064216;28;19921;-69
2022/10/23 07:30:08;;;;;;;;;;;11.40;99.90;;;;;;5085258;28;19908;-69
2022/10/23 07:32:33;;;;;;;;;;;11.40;99.90;;;;;;5084993;28;19909;-69
2022/10/23 07:35:00;;;;;;;;;;;11.40;99.90;;;;;;5080267;28;19913;-69
2022/10/23 07:37:28;;;;;;;;;;;11.50;99.90;;;;;;5071181;28;19940;-69
2022/10/23 07:39:53;;;;;;;;;;;11.50;99.90;;;;;;5076712;28;19912;-74
2022/10/23 07:42:19;;;;;;;;;;;11.60;99.90;;;;;;5067173;28;19933;-74
2022/10/23 07:44:45;;;;;;;;;;;11.70;99.90;;;;;;5080275;28;19917;-73
2022/10/23 07:47:10;;;;;;;;;;;11.70;99.90;;;;;;5080116;28;19912;-75
2022/10/23 07:49:36;;;;;;;;;;;11.80;99.90;;;;;;5085316;28;20231;-72
2022/10/23 07:52:03;;;;;;;;;;;11.90;99.90;;;;;;5077862;28;19928;-71
2022/10/23 07:54:29;;;;;;;;;;;12.00;99.90;;;;;;5071848;28;19908;-71
2022/10/23 07:56:55;;;;;;;;;;;12.00;99.90;;;;;;5084607;28;20146;-71
2022/10/23 07:59:20;;;;;;;;;;;12.10;99.90;;;;;;5068808;28;19912;-71
2022/10/23 08:01:47;;;;;;;;;;;12.20;99.90;;;;;;5068011;28;19928;-72
2022/10/23 08:04:13;;;;;;;;;;;12.30;99.90;;;;;;5085360;28;19945;-72
2022/10/23 08:06:38;;;;;;;;;;;12.40;99.90;;;;;;5084823;28;19947;-71
2022/10/23 08:09:04;;;;;;;;;;;12.50;99.90;;;;;;5084438;28;19979;-71
2022/10/23 08:11:34;;;;;;;;;;;12.60;99.90;;;;;;5050742;28;19947;-72
2022/10/23 08:14:01;;;;;;;;;;;12.70;99.90;;;;;;5084735;28;19909;-71
2022/10/23 08:16:27;;;;;;;;;;;12.80;99.90;;;;;;5066569;28;20123;-71
2022/10/23 08:18:52;;;;;;;;;;;12.90;99.90;;;;;;5084409;28;19915;-71
2022/10/23 08:21:18;;;;;;;;;;;13.00;99.90;;;;;;5084286;28;20131;-72
2022/10/23 08:23:44;;;;;;;;;;;13.10;99.90;;;;;;5084097;28;19930;-72
2022/10/23 08:26:09;;;;;;;;;;;13.20;99.90;;;;;;5066126;28;19954;-72
2022/10/23 08:28:35;;;;;;;;;;;13.20;99.90;;;;;;5066298;28;20234;-72
2022/10/23 08:31:08;;;;;;;;;;;13.30;99.90;;;;;;5066309;28;19908;-72
2022/10/23 08:33:34;;;;;;;;;;;13.40;99.90;;;;;;5066242;28;20238;-72
2022/10/23 08:35:59;;;;;;;;;;;13.40;99.90;;;;;;5083931;28;19908;-72
2022/10/23 08:38:25;;;;;;;;;;;13.50;99.90;;;;;;5064778;28;19920;-72
2022/10/23 08:40:51;;;;;;;;;;;13.60;99.90;;;;;;5066079;28;19912;-72
2022/10/23 08:43:33;;;;;;;;;;;13.70;99.90;;;;;;5083861;28;20137;-72
2022/10/23 08:46:01;;;;;;;;;;;13.70;99.90;;;;;;5049471;28;19975;-72
2022/10/23 08:48:29;;;;;;;;;;;13.90;99.90;;;;;;5049282;28;19964;-72
2022/10/23 08:51:01;;;;;;;;;;;14.00;99.90;;;;;;5066023;28;19908;-72
2022/10/23 08:53:51;;;;;;;;;;;14.10;99.90;;;;;;5083336;28;19916;-72
2022/10/23 08:56:28;;;;;;;;;;;14.20;99.90;;;;;;5083482;28;20131;-72
2022/10/23 08:59:28;;;;;;;;;;;14.40;99.90;;;;;;5066761;28;20333;-72
2022/10/23 09:02:23;;;;;;;;;;;14.50;99.90;;;;;;5038699;28;19944;-73
2022/10/23 09:04:50;;;;;;;;;;;14.60;99.90;;;;;;5049764;28;19912;-72
2022/10/23 09:07:38;;;;;;;;;;;14.70;99.90;;;;;;5062212;28;19916;-73
2022/10/23 09:10:13;;;;;;;;;;;14.80;99.90;;;;;;5081183;28;20273;-73
2022/10/23 09:12:39;;;;;;;;;;;14.90;99.90;;;;;;5065448;28;19916;-72
2022/10/23 09:15:27;;;;;;;;;;;15.00;99.90;;;;;;5048607;28;19908;-72
2022/10/23 09:18:00;;;;;;;;;;;15.10;99.90;;;;;;5065122;28;19908;-72
2022/10/23 09:20:31;;;;;;;;;;;15.20;99.90;;;;;;5065326;28;19912;-72
2022/10/23 09:22:59;;;;;;;;;;;15.30;99.90;;;;;;5060227;28;20285;-72
2022/10/23 09:25:29;;;;;;;;;;;15.30;99.90;;;;;;5079577;28;19913;-72
2022/10/23 09:27:59;;;;;;;;;;;15.40;99.90;;;;;;5074964;28;19923;-74
2022/10/23 09:30:34;;;;;;;;;;;15.50;99.90;;;;;;5044377;28;20161;-76
2022/10/23 09:33:11;;;;;;;;;;;15.50;99.90;;;;;;5079434;28;19913;-73
2022/10/23 09:35:36;;;;;;;;;;;15.60;99.90;;;;;;5055427;28;19923;-80
2022/10/23 09:38:02;;;;;;;;;;;15.80;99.90;;;;;;5044875;28;19920;-79
2022/10/23 09:40:39;;;;;;;;;;;15.90;99.90;;;;;;5059763;28;19920;-80
2022/10/23 09:43:16;;;;;;;;;;;16.00;99.90;;;;;;5059516;28;19908;-80
2022/10/23 09:45:42;;;;;;;;;;;16.00;99.90;;;;;;5038274;28;19927;-79
2022/10/23 09:48:13;;;;;;;;;;;16.10;99.90;;;;;;5072467;28;19944;-80
2022/10/23 09:50:59;;;;;;;;;;;16.20;99.90;;;;;;5066749;28;19909;-79
2022/10/23 09:53:31;;;;;;;;;;;16.40;99.90;;;;;;5066326;28;19948;-78
2022/10/23 09:55:59;;;;;;;;;;;16.50;99.90;;;;;;5073770;28;19915;-79
2022/10/23 09:58:36;;;;;;;;;;;16.70;99.90;;;;;;5044703;28;19916;-78
2022/10/23 10:01:01;;;;;;;;;;;16.90;99.90;;;;;;5053769;28;19913;-78
2022/10/23 10:03:27;;;;;;;;;;;17.00;99.90;;;;;;5051399;28;19919;-79
2022/10/23 10:05:57;;;;;;;;;;;17.20;99.90;;;;;;5036243;28;19921;-79
2022/10/23 10:08:26;;;;;;;;;;;17.40;99.90;;;;;;5059150;28;19921;-79
2022/10/23 10:11:06;;;;;;;;;;;17.50;99.90;;;;;;5076530;28;20250;-80
2022/10/23 10:13:32;;;;;;;;;;;17.60;99.90;;;;;;5053753;28;19943;-79
2022/10/23 10:16:02;;;;;;;;;;;17.70;99.90;;;;;;5080315;28;19920;-80
2022/10/23 10:18:45;;;;;;;;;;;17.90;99.90;;;;;;5057476;28;19909;-80
2022/10/23 10:21:23;;;;;;;;;;;17.90;99.90;;;;;;5065598;28;20211;-79
2022/10/23 10:23:54;;;;;;;;;;;17.90;99.90;;;;;;5081805;28;19924;-78
2022/10/23 10:26:33;;;;;;;;;;;18.10;99.90;;;;;;5065507;28;20043;-80
2022/10/23 10:29:29;;;;;;;;;;;18.30;99.90;;;;;;5074433;28;20400;-78
2022/10/23 10:32:01;;;;;;;;;;;18.50;99.90;;;;;;5082404;28;19923;-79
2022/10/23 10:34:29;;;;;;;;;;;18.70;99.90;;;;;;5072039;28;19916;-79
2022/10/23 10:36:59;;;;;;;;;;;18.80;99.90;;;;;;5065180;28;20007;-76
2022/10/23 10:39:46;;;;;;;;;;;19.00;99.90;;;;;;5064008;28;20223;-76
2022/10/23 10:42:30;;;;;;;;;;;19.10;99.90;;;;;;5061276;28;20007;-75
2022/10/23 10:45:14;;;;;;;;;;;19.30;99.90;;;;;;5078329;28;19947;-76
2022/10/23 10:48:07;;;;;;;;;;;19.60;99.90;;;;;;5045238;28;19991;-73
2022/10/23 10:50:42;;;;;;;;;;;20.00;99.90;;;;;;5067352;28;19955;-75
2022/10/23 10:53:35;;;;;;;;;;;20.40;99.90;;;;;;5082155;28;19912;-74
2022/10/23 10:56:01;;;;;;;;;;;20.80;99.90;;;;;;5066981;28;19939;-76
2022/10/23 10:58:46;;;;;;;;;;;21.30;99.90;;;;;;5064132;28;19916;-75
2022/10/23 11:01:27;;;;;;;;;;;21.50;99.90;;;;;;5066540;28;19923;-75
2022/10/23 11:04:03;;;;;;;;;;;21.60;99.90;;;;;;5067994;28;19915;-75
2022/10/23 11:06:29;;;;;;;;;;;21.50;99.90;;;;;;5069149;28;20111;-75
2022/10/23 11:08:55;;;;;;;;;;;21.50;99.90;;;;;;5067441;28;20230;-74
2022/10/23 11:11:35;;;;;;;;;;;21.50;99.90;;;;;;5061341;28;19912;-74
2022/10/23 11:14:00;;;;;;;;;;;21.60;99.90;;;;;;5064426;28;22031;-75
2022/10/23 11:16:28;;;;;;;;;;;21.90;99.90;;;;;;5077996;28;19913;-75
2022/10/23 11:19:13;;;;;;;;;;;22.00;99.90;;;;;;5047059;28;20015;-69
2022/10/23 11:21:58;;;;;;;;;;;21.80;99.90;;;;;;5046738;28;20302;-72
2022/10/23 11:24:43;;;;;;;;;;;21.60;99.90;;;;;;5051258;28;19912;-74
2022/10/23 11:27:21;;;;;;;;;;;21.50;99.90;;;;;;5076197;28;19908;-71
2022/10/23 11:30:18;;;;;;;;;;;21.40;99.90;;;;;;5071470;28;19944;-70
2022/10/23 11:32:47;;;;;;;;;;;21.30;99.90;;;;;;5066525;28;20141;-70
2022/10/23 11:35:30;;;;;;;;;;;21.20;99.90;;;;;;5075346;28;20128;-70
2022/10/23 11:38:07;;;;;;;;;;;21.10;99.90;;;;;;5075524;28;19919;-69
2022/10/23 11:40:33;;;;;;;;;;;21.00;99.90;;;;;;5079715;28;20284;-70
2022/10/23 11:42:59;;;;;;;;;;;21.00;99.90;;;;;;5084888;28;19916;-70
2022/10/23 11:45:35;;;;;;;;;;;20.90;99.90;;;;;;5084772;28;20229;-71
2022/10/23 11:48:05;;;;;;;;;;;20.80;99.90;;;;;;5084379;28;19916;-70
2022/10/23 11:50:49;;;;;;;;;;;20.70;99.90;;;;;;5084973;28;20127;-70
2022/10/23 11:53:26;;;;;;;;;;;20.60;99.90;;;;;;5084842;28;20177;-70
2022/10/23 11:56:02;;;;;;;;;;;20.70;99.90;;;;;;5083287;28;19916;-70
2022/10/23 11:58:52;;;;;;;;;;;20.90;99.90;;;;;;5065938;28;19913;-71
2022/10/23 12:01:41;;;;;;;;;;;21.20;99.90;;;;;;5070806;28;19912;-70
2022/10/23 12:04:12;;;;;;;;;;;21.50;99.90;;;;;;5061393;28;20388;-70
2022/10/23 12:06:46;;;;;;;;;;;21.90;99.90;;;;;;5078450;28;19940;-70
2022/10/23 12:09:24;;;;;;;;;;;22.20;99.90;;;;;;5081643;28;19924;-70
2022/10/23 12:12:08;;;;;;;;;;;22.50;96.00;;;;;;5079539;28;19954;-70
2022/10/23 12:14:34;;;;;;;;;;;22.50;99.00;;;;;;5082415;28;19997;-71
2022/10/23 12:17:00;;;;;;;;;;;22.60;98.80;;;;;;5079725;28;19919;-70
2022/10/23 12:19:27;;;;;;;;;;;22.60;99.30;;;;;;5060135;28;19934;-70
2022/10/23 12:21:56;;;;;;;;;;;22.40;98.70;;;;;;5080669;28;20083;-70
2022/10/23 12:24:38;;;;;;;;;;;22.10;99.90;;;;;;5038592;28;20127;-70
2022/10/23 12:27:17;;;;;;;;;;;21.90;99.90;;;;;;5080929;28;19908;-70
2022/10/23 12:29:49;;;;;;;;;;;21.60;99.90;;;;;;5084002;28;20107;-70
2022/10/23 12:32:21;;;;;;;;;;;21.30;99.90;;;;;;5083538;28;19912;-70
2022/10/23 12:35:05;;;;;;;;;;;21.10;99.90;;;;;;5050113;28;19952;-70
2022/10/23 12:37:53;;;;;;;;;;;21.00;99.90;;;;;;5083133;28;19912;-70
2022/10/23 12:40:19;;;;;;;;;;;21.00;99.90;;;;;;5083501;28;19908;-70
2022/10/23 12:42:52;;;;;;;;;;;20.90;99.90;;;;;;5083535;28;19915;-70
2022/10/23 12:45:25;;;;;;;;;;;20.90;99.90;;;;;;5065742;28;19989;-70
2022/10/23 12:47:51;;;;;;;;;;;20.80;99.90;;;;;;5048854;28;19952;-70
2022/10/23 12:50:25;;;;;;;;;;;20.90;99.90;;;;;;5047411;28;19966;-68
2022/10/23 12:52:55;;;;;;;;;;;21.00;99.90;;;;;;5055403;28;19932;-68
2022/10/23 12:55:22;;;;;;;;;;;21.10;99.90;;;;;;5077075;28;19915;-69
2022/10/23 12:57:48;;;;;;;;;;;21.20;99.90;;;;;;5078232;28;19928;-69
2022/10/23 13:00:16;;;;;;;;;;;21.50;99.90;;;;;;5083279;28;19915;-69
2022/10/23 13:02:41;;;;;;;;;;;21.90;99.90;;;;;;5083280;28;19928;-70
2022/10/23 13:05:12;;;;;;;;;;;22.40;99.90;;;;;;5082676;28;19946;-71
2022/10/23 13:07:44;;;;;;;;;;;22.60;99.90;;;;;;5048919;28;19924;-71
2022/10/23 13:10:14;;;;;;;;;;;22.70;99.90;;;;;;5063126;28;20111;-70
2022/10/23 13:12:40;;;;;;;;;;;22.80;99.90;;;;;;5048416;28;19940;-70
2022/10/23 13:15:06;;;;;;;;;;;22.90;99.90;;;;;;5048248;28;19931;-71
2022/10/23 13:17:46;;;;;;;;;;;23.00;99.90;;;;;;5082475;28;19939;-71
2022/10/23 13:20:27;;;;;;;;;;;23.10;99.90;;;;;;5046273;28;20160;-70
2022/10/23 13:23:17;;;;;;;;;;;23.10;99.90;;;;;;5064374;28;20115;-71
2022/10/23 13:26:14;;;;;;;;;;;22.80;99.90;;;;;;5062866;28;19916;-70
2022/10/23 13:28:41;;;;;;;;;;;22.50;99.90;;;;;;5077141;28;19940;-68
2022/10/23 13:31:10;;;;;;;;;;;22.10;99.90;;;;;;5048362;28;19923;-69
2022/10/23 13:33:46;;;;;;;;;;;21.80;99.90;;;;;;5082683;28;19909;-68
2022/10/23 13:36:15;;;;;;;;;;;21.50;99.90;;;;;;5048090;28;19966;-68
2022/10/23 13:39:04;;;;;;;;;;;21.10;99.90;;;;;;5082179;28;19912;-68
2022/10/23 13:41:44;;;;;;;;;;;20.90;99.90;;;;;;5068803;28;19912;-69
2022/10/23 13:44:17;;;;;;;;;;;20.70;99.90;;;;;;5076545;28;19920;-69
2022/10/23 13:46:43;;;;;;;;;;;20.40;99.90;;;;;;5082241;28;19983;-69
2022/10/23 13:49:09;;;;;;;;;;;20.20;99.90;;;;;;5082635;28;19913;-69
2022/10/23 13:51:38;;;;;;;;;;;20.10;99.90;;;;;;5080688;28;19981;-68
2022/10/23 13:54:05;;;;;;;;;;;20.00;99.90;;;;;;5039566;28;20243;-69
2022/10/23 13:56:31;;;;;;;;;;;20.00;99.90;;;;;;5051825;28;20258;-68
2022/10/23 13:58:56;;;;;;;;;;;20.10;99.90;;;;;;5062377;28;19916;-69
2022/10/23 14:01:30;;;;;;;;;;;20.20;99.90;;;;;;5062512;28;19908;-69
2022/10/23 14:03:56;;;;;;;;;;;20.20;99.90;;;;;;5060916;28;19944;-69
2022/10/23 14:06:22;;;;;;;;;;;20.30;99.90;;;;;;5070841;28;19916;-69
2022/10/23 14:08:47;;;;;;;;;;;20.30;99.90;;;;;;5076170;28;20029;-68
2022/10/23 14:11:14;;;;;;;;;;;20.40;99.90;;;;;;5072010;28;19920;-68
2022/10/23 14:13:40;;;;;;;;;;;20.30;99.90;;;;;;5076808;28;20211;-69
2022/10/23 14:16:07;;;;;;;;;;;20.20;99.90;;;;;;5076420;28;19909;-68
2022/10/23 14:18:33;;;;;;;;;;;20.10;99.90;;;;;;5059472;28;19920;-69
2022/10/23 14:21:02;;;;;;;;;;;20.00;99.90;;;;;;5078834;28;19912;-69
2022/10/23 14:23:28;;;;;;;;;;;19.80;99.90;;;;;;5068993;28;19958;-69
2022/10/23 14:26:00;;;;;;;;;;;19.70;99.90;;;;;;5020636;28;19921;-69
2022/10/23 14:28:26;;;;;;;;;;;19.60;99.90;;;;;;5072444;28;19979;-69
2022/10/23 14:30:51;;;;;;;;;;;19.50;99.90;;;;;;5073725;28;19917;-70
2022/10/23 14:33:17;;;;;;;;;;;19.40;99.90;;;;;;5082269;28;20208;-70
2022/10/23 14:35:43;;;;;;;;;;;19.30;99.90;;;;;;5083868;28;19962;-69